Time;durP1;ratioP1;P1;durP2;ratioP2;P2;SDS_P1;SDS_P2;PMS_P1;PMS_P2;Temp;Humidity;BMP_temperature;BMP_pressure;BME280_temperature;BME280_humidity;BME280_pressure;Samples;Min_cycle;Max_cycle;Signal;HPM_P1;HPM_P2
2022/07/24 00:00:21;;;;;;;;;19.75;16.00;;;;;23.36;54.00;101660.59;5078447;27;45387;-54
2022/07/24 00:02:46;;;;;;;;;16.50;16.25;;;;;23.33;53.89;101662.88;5078659;28;45307;-55
2022/07/24 00:05:11;;;;;;;;;19.50;17.50;;;;;23.27;53.78;101664.56;5078241;27;45340;-56
2022/07/24 00:07:37;;;;;;;;;15.50;15.25;;;;;23.27;54.22;101661.03;5078285;28;45357;-55
2022/07/24 00:10:06;;;;;;;;;14.00;14.00;;;;;23.15;54.04;101653.50;5078306;27;45785;-55
2022/07/24 00:12:32;;;;;;;;;18.75;16.00;;;;;23.16;54.32;101657.88;5077915;28;45621;-55
2022/07/24 00:14:57;;;;;;;;;17.25;17.25;;;;;23.13;54.01;101654.72;5077866;27;46351;-55
2022/07/24 00:17:23;;;;;;;;;19.00;16.75;;;;;23.14;54.31;101670.00;5078175;27;45437;-55
2022/07/24 00:19:48;;;;;;;;;17.75;14.75;;;;;23.11;54.33;101671.22;5078256;28;45369;-54
2022/07/24 00:22:14;;;;;;;;;21.50;17.25;;;;;23.10;54.92;101674.16;5078579;27;45502;-54
2022/07/24 00:24:40;;;;;;;;;19.75;16.25;;;;;23.07;54.94;101672.69;5077798;27;45352;-56
2022/07/24 00:27:05;;;;;;;;;19.25;18.00;;;;;23.06;54.67;101667.47;5078007;27;45212;-55
2022/07/24 00:29:30;;;;;;;;;18.50;17.00;;;;;22.99;54.11;101659.31;5078129;27;45234;-55
2022/07/24 00:31:56;;;;;;;;;18.00;17.50;;;;;22.96;54.23;101665.13;5078176;27;45395;-54
2022/07/24 00:34:21;;;;;;;;;19.50;17.75;;;;;22.91;55.22;101652.19;5077602;27;46209;-56
2022/07/24 00:36:46;;;;;;;;;17.75;15.00;;;;;22.94;55.04;101664.53;5077895;27;45167;-55
2022/07/24 00:39:12;;;;;;;;;23.25;19.25;;;;;22.90;54.85;101655.97;5077892;27;45291;-55
2022/07/24 00:41:38;;;;;;;;;15.75;13.75;;;;;22.91;54.98;101651.38;5078024;27;45504;-57
2022/07/24 00:44:09;;;;;;;;;17.75;15.75;;;;;22.87;54.29;101639.22;5077663;27;46076;-56
2022/07/24 00:46:37;;;;;;;;;22.75;19.50;;;;;22.84;55.12;101628.81;5077856;27;45325;-58
2022/07/24 00:49:08;;;;;;;;;19.25;16.25;;;;;22.82;55.14;101623.56;5077912;27;45333;-55
2022/07/24 00:51:35;;;;;;;;;18.75;17.50;;;;;22.80;55.66;101622.94;5077788;27;45435;-55
2022/07/24 00:54:05;;;;;;;;;16.25;15.25;;;;;22.75;55.25;101614.56;5077323;27;46276;-54
2022/07/24 00:56:30;;;;;;;;;21.50;17.00;;;;;22.75;55.16;101622.72;5077450;27;45317;-55
2022/07/24 00:58:56;;;;;;;;;17.00;14.00;;;;;22.75;55.19;101627.31;5077650;27;45287;-54
2022/07/24 01:01:21;;;;;;;;;19.50;17.25;;;;;22.70;55.32;101622.50;5076146;28;45426;-54
2022/07/24 01:03:47;;;;;;;;;17.75;17.75;;;;;22.71;55.38;101615.19;5077258;28;46784;-55
2022/07/24 01:06:13;;;;;;;;;19.00;17.50;;;;;22.70;55.84;101617.06;5077416;28;45282;-55
2022/07/24 01:08:40;;;;;;;;;18.00;15.00;;;;;22.66;55.75;101611.22;5077630;27;45343;-55
2022/07/24 01:11:05;;;;;;;;;17.25;15.75;;;;;22.65;55.86;101606.84;5077410;27;45465;-55
2022/07/24 01:13:32;;;;;;;;;17.75;16.00;;;;;22.61;55.60;101605.56;5077182;27;45375;-55
2022/07/24 01:15:58;;;;;;;;;17.25;14.00;;;;;22.48;55.79;101600.13;5077136;27;45203;-55
2022/07/24 01:18:24;;;;;;;;;13.25;9.75;;;;;22.55;55.24;101619.97;5077484;28;45313;-55
2022/07/24 01:20:50;;;;;;;;;22.50;19.00;;;;;22.46;55.51;101609.50;5077571;27;45227;-55
2022/07/24 01:23:15;;;;;;;;;15.00;13.75;;;;;22.53;56.22;101616.63;5077031;28;46313;-57
2022/07/24 01:25:41;;;;;;;;;12.25;12.25;;;;;22.49;55.98;101617.22;5077028;27;45478;-55
2022/07/24 01:28:07;;;;;;;;;18.50;18.00;;;;;22.47;56.40;101628.28;5077044;27;45449;-62
2022/07/24 01:30:32;;;;;;;;;18.50;16.00;;;;;22.47;55.74;101635.59;5077113;27;45368;-58
2022/07/24 01:32:58;;;;;;;;;18.50;17.00;;;;;22.45;56.43;101629.53;5076847;27;47006;-63
2022/07/24 01:35:23;;;;;;;;;18.50;17.00;;;;;22.39;56.42;101626.59;5076801;27;45510;-64
2022/07/24 01:37:52;;;;;;;;;23.00;17.00;;;;;22.46;56.50;101631.19;5076508;27;45420;-58
2022/07/24 01:40:17;;;;;;;;;21.00;16.00;;;;;22.32;56.48;101605.91;5077227;27;45300;-65
2022/07/24 01:42:43;;;;;;;;;20.75;18.00;;;;;22.28;56.51;101607.34;5076767;27;46081;-64
2022/07/24 01:45:09;;;;;;;;;16.75;16.75;;;;;22.31;56.38;101598.81;5075752;28;45273;-65
2022/07/24 01:47:34;;;;;;;;;16.00;15.75;;;;;22.42;56.67;101622.66;5077019;27;45527;-55
2022/07/24 01:49:59;;;;;;;;;15.75;15.00;;;;;22.42;57.13;101622.66;5077360;27;45387;-65
2022/07/24 01:52:25;;;;;;;;;19.00;16.75;;;;;22.44;56.88;101627.84;5076788;28;45455;-62
2022/07/24 01:54:51;;;;;;;;;17.25;15.25;;;;;22.41;56.89;101613.66;5076730;27;45376;-65
2022/07/24 01:57:17;;;;;;;;;17.75;17.00;;;;;22.44;56.84;101614.31;5076543;27;45397;-64
2022/07/24 01:59:42;;;;;;;;;20.50;18.75;;;;;22.41;57.32;101608.22;5076846;28;45399;-64
2022/07/24 02:02:08;;;;;;;;;21.25;17.00;;;;;22.39;56.21;101607.63;5076461;28;46139;-64
2022/07/24 02:04:33;;;;;;;;;20.25;16.75;;;;;22.38;55.98;101613.25;5076584;27;45346;-63
2022/07/24 02:06:59;;;;;;;;;19.75;16.50;;;;;22.33;56.72;101613.88;5076819;27;45424;-62
2022/07/24 02:09:24;;;;;;;;;20.75;16.50;;;;;22.32;56.32;101614.03;5077010;27;45361;-63
2022/07/24 02:11:49;;;;;;;;;15.75;14.50;;;;;22.30;56.54;101610.72;5076389;27;47234;-63
2022/07/24 02:14:15;;;;;;;;;18.00;17.00;;;;;22.29;56.96;101612.59;5078855;27;45370;-64
2022/07/24 02:16:40;;;;;;;;;17.25;16.00;;;;;22.29;56.12;101604.47;5080280;27;45309;-62
2022/07/24 02:19:05;;;;;;;;;20.75;17.00;;;;;22.17;56.37;101603.38;5080445;28;45265;-64
2022/07/24 02:21:31;;;;;;;;;16.25;15.50;;;;;22.19;56.42;101609.41;5079861;27;45410;-63
2022/07/24 02:23:56;;;;;;;;;19.75;15.00;;;;;22.14;56.64;101604.59;5079813;27;45323;-63
2022/07/24 02:26:22;;;;;;;;;22.75;18.00;;;;;22.11;56.27;101596.84;5079849;27;45490;-63
2022/07/24 02:28:48;;;;;;;;;19.75;16.75;;;;;22.08;56.48;101597.25;5080111;28;45351;-60
2022/07/24 02:31:13;;;;;;;;;18.00;18.00;;;;;22.06;57.05;101599.31;5080023;27;45277;-63
2022/07/24 02:33:39;;;;;;;;;16.75;14.50;;;;;22.03;57.04;101588.88;5079567;27;45371;-65
2022/07/24 02:36:04;;;;;;;;;20.25;17.00;;;;;21.98;56.45;101585.13;5079751;27;45316;-61
2022/07/24 02:38:30;;;;;;;;;18.50;17.25;;;;;22.01;56.80;101590.97;5080215;27;45425;-66
2022/07/24 02:40:56;;;;;;;;;19.75;16.50;;;;;21.96;56.69;101579.91;5079304;27;45443;-65
2022/07/24 02:43:21;;;;;;;;;19.25;16.25;;;;;21.93;56.90;101589.25;5079571;27;45318;-60
2022/07/24 02:45:46;;;;;;;;;19.75;15.50;;;;;21.86;57.75;101576.72;5079682;27;45319;-66
2022/07/24 02:48:11;;;;;;;;;17.00;17.00;;;;;21.87;57.63;101583.81;5078489;27;45425;-55
2022/07/24 02:50:38;;;;;;;;;18.50;16.75;;;;;21.83;57.93;101577.13;5079378;27;45947;-65
2022/07/24 02:53:04;;;;;;;;;16.50;14.75;;;;;21.71;58.28;101559.78;5079496;27;45370;-61
2022/07/24 02:55:30;;;;;;;;;21.50;18.50;;;;;21.81;58.16;101574.59;5061356;27;45419;-61
2022/07/24 02:57:55;;;;;;;;;17.50;15.00;;;;;21.80;58.13;101574.81;5079504;27;45356;-65
2022/07/24 03:00:21;;;;;;;;;19.75;17.50;;;;;21.78;57.85;101566.88;5079172;27;46140;-64
2022/07/24 03:02:47;;;;;;;;;19.00;18.25;;;;;21.73;58.47;101561.22;5079393;28;45252;-63
2022/07/24 03:05:13;;;;;;;;;19.67;18.00;;;;;21.75;58.57;101569.19;5079390;27;45413;-56
2022/07/24 03:07:39;;;;;;;;;20.25;15.00;;;;;21.72;58.14;101570.41;5079524;27;45358;-59
2022/07/24 03:10:06;;;;;;;;;17.25;17.25;;;;;21.72;58.19;101562.28;5079032;27;46112;-55
2022/07/24 03:12:31;;;;;;;;;18.75;17.50;;;;;21.71;58.32;101565.19;5078812;27;45508;-61
2022/07/24 03:14:56;;;;;;;;;19.75;15.75;;;;;21.70;58.64;101563.50;5079282;28;45368;-58
2022/07/24 03:17:22;;;;;;;;;15.50;15.00;;;;;21.70;58.34;101560.78;5079195;27;45406;-57
2022/07/24 03:19:47;;;;;;;;;20.00;18.75;;;;;21.68;58.42;101564.53;5078813;27;45457;-59
2022/07/24 03:22:13;;;;;;;;;24.67;18.67;;;;;21.68;58.72;101569.97;5079085;27;45378;-55
2022/07/24 03:24:38;;;;;;;;;17.67;16.00;;;;;21.69;58.64;101559.97;5078707;27;45307;-57
2022/07/24 03:27:03;;;;;;;;;19.33;17.33;;;;;21.64;58.94;101562.44;5079282;27;45360;-55
2022/07/24 03:29:29;;;;;;;;;21.25;18.00;;;;;21.59;59.35;101554.09;5078720;27;47027;-56
2022/07/24 03:31:54;;;;;;;;;19.67;18.00;;;;;21.57;59.45;101558.84;5078786;28;45557;-60
2022/07/24 03:34:19;;;;;;;;;16.00;15.00;;;;;21.55;59.06;101564.47;5078741;28;45505;-54
2022/07/24 03:36:45;;;;;;;;;23.25;20.00;;;;;21.55;59.44;101564.47;5079062;27;45287;-55
2022/07/24 03:39:10;;;;;;;;;21.33;17.33;;;;;21.52;58.91;101562.16;5078769;27;45283;-55
2022/07/24 03:41:35;;;;;;;;;18.00;16.67;;;;;21.53;59.41;101565.69;5078515;28;45201;-60
2022/07/24 03:44:01;;;;;;;;;17.67;17.67;;;;;21.52;59.32;101569.44;5078951;27;45351;-55
2022/07/24 03:46:28;;;;;;;;;19.33;18.33;;;;;21.50;59.63;101566.13;5079157;27;45238;-54
2022/07/24 03:48:54;;;;;;;;;17.33;14.33;;;;;21.51;59.29;101570.47;5078578;27;46293;-55
2022/07/24 03:51:20;;;;;;;;;20.33;17.00;;;;;21.37;59.37;101545.22;5078646;27;45373;-61
2022/07/24 03:53:45;;;;;;;;;21.00;17.00;;;;;21.48;58.98;101571.72;5078551;27;46054;-56
2022/07/24 03:56:10;;;;;;;;;24.00;19.67;;;;;21.43;59.61;101564.19;5078532;27;45624;-57
2022/07/24 03:58:37;;;;;;;;;17.00;17.00;;;;;21.45;59.46;101569.41;5078294;27;46045;-57
2022/07/24 04:01:02;;;;;;;;;22.33;17.00;;;;;21.44;59.26;101567.72;5093976;27;45366;-58
2022/07/24 04:03:27;;;;;;;;;20.00;16.00;;;;;21.40;59.44;101564.56;5078479;27;45434;-55
2022/07/24 04:05:53;;;;;;;;;19.00;17.50;;;;;21.39;59.79;101560.19;5078889;27;45419;-61
2022/07/24 04:08:18;;;;;;;;;23.33;18.67;;;;;21.27;60.21;101545.50;5079352;27;46170;-60
2022/07/24 04:10:44;;;;;;;;;19.67;16.33;;;;;21.31;60.17;101554.06;5079475;27;45362;-55
2022/07/24 04:13:10;;;;;;;;;26.67;20.67;;;;;21.31;59.34;101557.63;5079477;27;45438;-55
2022/07/24 04:15:35;;;;;;;;;20.00;17.67;;;;;21.32;60.23;101563.88;5078572;28;45515;-57
2022/07/24 04:18:01;;;;;;;;;17.67;16.33;;;;;21.28;60.67;101568.84;5079277;28;47297;-55
2022/07/24 04:20:26;;;;;;;;;17.00;17.00;;;;;21.27;60.66;101563.63;5078854;27;45422;-55
2022/07/24 04:22:52;;;;;;;;;23.67;20.00;;;;;21.32;60.68;101580.13;5061051;28;45331;-56
2022/07/24 04:25:17;;;;;;;;;23.33;21.00;;;;;21.32;60.50;101577.41;5079436;27;45410;-56
2022/07/24 04:27:47;;;;;;;;;20.75;18.00;;;;;21.37;60.09;101573.09;5078038;27;46247;-61
2022/07/24 04:30:13;;;;;;;;;23.00;20.00;;;;;21.38;60.18;101574.78;5078353;27;45366;-56
2022/07/24 04:32:39;;;;;;;;;26.25;20.25;;;;;21.39;60.46;101575.59;5078128;27;45469;-54
2022/07/24 04:35:05;;;;;;;;;19.75;17.25;;;;;21.37;60.08;101577.69;5077797;27;45432;-58
2022/07/24 04:37:31;;;;;;;;;18.50;18.00;;;;;21.37;60.44;101574.97;5077154;28;45246;-54
2022/07/24 04:39:56;;;;;;;;;18.25;16.50;;;;;21.38;59.87;101571.25;5077800;27;45308;-56
2022/07/24 04:42:21;;;;;;;;;19.75;17.50;;;;;21.39;59.73;101578.31;5077872;27;45372;-54
2022/07/24 04:44:47;;;;;;;;;18.75;18.00;;;;;21.33;60.03;101565.59;5078376;27;45387;-63
2022/07/24 04:47:12;;;;;;;;;22.25;20.50;;;;;21.42;59.75;101577.94;5077700;27;47099;-56
2022/07/24 04:49:38;;;;;;;;;20.25;18.25;;;;;21.46;59.62;101578.38;5077814;27;45294;-55
2022/07/24 04:52:03;;;;;;;;;23.50;19.25;;;;;21.48;59.77;101574.41;5077527;27;45781;-55
2022/07/24 04:54:29;;;;;;;;;20.00;18.25;;;;;21.48;59.20;101569.00;5077632;28;45300;-58
2022/07/24 04:56:54;;;;;;;;;21.00;17.00;;;;;21.47;59.81;101561.09;5077613;27;45292;-58
2022/07/24 04:59:19;;;;;;;;;23.50;18.50;;;;;21.46;59.48;101565.66;5077698;27;45256;-58
2022/07/24 05:01:45;;;;;;;;;25.75;19.50;;;;;21.49;59.48;101568.00;5077913;27;45240;-53
2022/07/24 05:04:10;;;;;;;;;18.75;18.75;;;;;21.48;59.54;101562.75;5078434;27;45131;-57
2022/07/24 05:06:35;;;;;;;;;17.00;16.50;;;;;21.41;59.56;101558.16;5077328;27;46045;-54
2022/07/24 05:09:01;;;;;;;;;20.75;18.00;;;;;21.44;59.53;101556.91;5077567;27;45355;-54
2022/07/24 05:11:26;;;;;;;;;16.25;16.00;;;;;21.46;58.99;101571.09;5077574;27;45843;-55
2022/07/24 05:13:51;;;;;;;;;15.75;15.75;;;;;21.49;59.01;101559.00;5077124;27;45381;-58
2022/07/24 05:16:17;;;;;;;;;19.75;15.00;;;;;21.45;58.71;101555.88;5077120;27;46959;-56
2022/07/24 05:18:42;;;;;;;;;14.75;14.00;;;;;21.50;58.93;101566.94;5077244;28;45360;-57
2022/07/24 05:21:08;;;;;;;;;18.25;16.00;;;;;21.48;57.72;101563.59;5077285;27;45271;-54
2022/07/24 05:23:33;;;;;;;;;13.75;13.75;;;;;21.50;58.25;101571.53;5077353;27;45469;-58
2022/07/24 05:25:58;;;;;;;;;14.50;14.50;;;;;21.45;58.19;101569.41;5077008;27;46413;-63
2022/07/24 05:28:24;;;;;;;;;16.75;15.25;;;;;21.47;58.05;101570.03;5077272;27;45330;-55
2022/07/24 05:30:49;;;;;;;;;15.25;15.25;;;;;21.46;58.63;101573.78;5077197;27;45253;-58
2022/07/24 05:33:15;;;;;;;;;18.25;17.75;;;;;21.49;58.47;101570.69;5077415;27;45378;-59
2022/07/24 05:35:40;;;;;;;;;20.50;16.50;;;;;21.50;58.00;101566.13;5076744;28;45758;-55
2022/07/24 05:38:06;;;;;;;;;18.00;13.75;;;;;21.47;58.46;101564.63;5077016;27;45431;-54
2022/07/24 05:40:31;;;;;;;;;17.25;14.75;;;;;21.47;58.88;101571.91;5077168;27;45348;-56
2022/07/24 05:42:56;;;;;;;;;19.50;15.00;;;;;21.47;58.49;101561.91;5076980;27;45490;-56
2022/07/24 05:45:22;;;;;;;;;17.50;16.25;;;;;21.50;58.93;101571.53;5076961;27;46272;-54
2022/07/24 05:47:47;;;;;;;;;18.50;16.25;;;;;21.49;58.85;101570.69;5076930;27;45329;-57
2022/07/24 05:50:14;;;;;;;;;16.50;15.50;;;;;21.57;58.60;101575.91;5080631;27;45229;-61
2022/07/24 05:52:40;;;;;;;;;17.50;13.75;;;;;21.58;58.17;101568.66;5080983;27;45581;-58
2022/07/24 05:55:07;;;;;;;;;18.00;15.75;;;;;21.57;58.44;101567.81;5080158;27;46216;-61
2022/07/24 05:57:33;;;;;;;;;17.50;14.50;;;;;21.68;58.35;101563.72;5079193;28;45436;-57
2022/07/24 05:59:58;;;;;;;;;20.75;17.25;;;;;21.74;57.90;101570.19;5080439;27;45613;-56
2022/07/24 06:02:24;;;;;;;;;15.75;14.25;;;;;21.79;58.33;101565.03;5080555;27;45323;-62
2022/07/24 06:04:49;;;;;;;;;18.50;16.00;;;;;21.81;58.04;101571.91;5080179;27;47169;-66
2022/07/24 06:07:15;;;;;;;;;19.25;15.00;;;;;21.87;57.83;101562.16;5080127;27;45437;-55
2022/07/24 06:09:40;;;;;;;;;20.50;18.75;;;;;21.94;57.92;101565.72;5080266;27;45395;-61
2022/07/24 06:12:06;;;;;;;;;16.75;16.25;;;;;21.98;57.58;101564.28;5080451;27;45209;-58
2022/07/24 06:14:32;;;;;;;;;18.25;15.00;;;;;22.00;57.41;101559.50;5079755;27;46230;-63
2022/07/24 06:16:58;;;;;;;;;24.00;19.33;;;;;21.98;57.32;101553.44;5080313;27;45446;-57
2022/07/24 06:19:24;;;;;;;;;18.25;17.25;;;;;22.04;57.92;101554.53;5080105;27;45510;-55
2022/07/24 06:21:49;;;;;;;;;18.50;17.00;;;;;22.09;57.97;101547.44;5080108;27;45288;-59
2022/07/24 06:24:14;;;;;;;;;21.50;19.75;;;;;22.11;57.34;101539.94;5079739;27;45337;-64
2022/07/24 06:26:40;;;;;;;;;16.00;14.00;;;;;22.23;57.19;101547.50;5079734;27;45368;-59
2022/07/24 06:29:06;;;;;;;;;21.00;15.50;;;;;22.26;57.29;101556.06;5078694;27;45319;-64
2022/07/24 06:31:31;;;;;;;;;14.75;14.50;;;;;22.30;57.54;101549.22;5079881;27;45355;-57
2022/07/24 06:33:56;;;;;;;;;20.25;15.25;;;;;22.36;56.81;101539.41;5079449;27;46215;-55
2022/07/24 06:36:22;;;;;;;;;26.50;20.00;;;;;22.44;57.25;101551.94;5078460;27;45412;-61
2022/07/24 06:38:48;;;;;;;;;18.75;18.75;;;;;22.49;57.02;101549.44;5079797;27;45395;-61
2022/07/24 06:41:13;;;;;;;;;20.25;17.00;;;;;22.58;56.54;101549.03;5080057;27;45383;-58
2022/07/24 06:43:39;;;;;;;;;18.50;18.00;;;;;22.65;56.45;101541.75;5079382;27;47049;-60
2022/07/24 06:46:05;;;;;;;;;21.25;18.00;;;;;22.77;56.15;101543.84;5079519;27;45349;-56
2022/07/24 06:48:31;;;;;;;;;21.00;17.75;;;;;22.88;56.20;101544.06;5079675;28;45282;-57
2022/07/24 06:50:56;;;;;;;;;26.50;20.00;;;;;23.01;55.81;101535.13;5079723;27;45282;-58
2022/07/24 06:53:22;;;;;;;;;21.25;20.00;;;;;23.15;55.73;101536.78;5077879;27;46184;-56
2022/07/24 06:55:47;;;;;;;;;18.75;17.50;;;;;23.32;55.48;101547.19;5079418;28;45322;-60
2022/07/24 06:58:12;;;;;;;;;24.25;20.00;;;;;;;;5079401;27;45439;-58
2022/07/24 07:00:39;;;;;;;;;23.75;17.25;;;;;23.67;54.44;101526.03;5079128;28;45364;-57
2022/07/24 07:03:05;;;;;;;;;22.75;17.25;;;;;24.17;54.21;101539.81;5079136;27;45453;-58
2022/07/24 07:05:31;;;;;;;;;19.00;19.00;;;;;24.58;53.01;101536.66;5078183;27;45367;-56
2022/07/24 07:07:56;;;;;;;;;23.75;19.50;;;;;25.11;51.93;101536.28;5079551;27;45388;-58
2022/07/24 07:10:21;;;;;;;;;19.75;17.00;;;;;25.63;50.91;101535.94;5079466;27;45332;-64
2022/07/24 07:12:47;;;;;;;;;20.25;20.25;;;;;26.11;49.69;101533.25;5079270;28;45425;-62
2022/07/24 07:15:13;;;;;;;;;17.75;17.50;;;;;26.55;49.54;101533.09;5078721;27;45304;-65
2022/07/24 07:17:40;;;;;;;;;18.80;17.00;;;;;27.09;49.16;101528.38;5079436;28;45245;-65
2022/07/24 07:20:06;;;;;;;;;18.25;17.75;;;;;27.69;46.47;101530.03;5077978;27;45457;-64
2022/07/24 07:22:31;;;;;;;;;21.20;17.40;;;;;28.30;45.09;101529.31;5078911;27;47184;-65
2022/07/24 07:24:57;;;;;;;;;25.25;18.75;;;;;28.86;44.30;101534.97;5079185;27;45170;-65
2022/07/24 07:27:22;;;;;;;;;20.00;17.75;;;;;29.51;42.85;101528.84;5078952;28;45159;-65
2022/07/24 07:29:48;;;;;;;;;19.75;18.50;;;;;30.20;41.26;101530.22;5079334;27;45324;-64
2022/07/24 07:32:13;;;;;;;;;21.75;18.50;;;;;31.01;41.31;101530.13;5078781;27;46048;-57
2022/07/24 07:34:38;;;;;;;;;18.50;16.75;;;;;32.65;37.11;101534.34;5078437;27;45456;-64
2022/07/24 07:37:04;;;;;;;;;23.50;20.25;;;;;35.04;33.57;101523.34;5079178;27;45209;-64
2022/07/24 07:39:29;;;;;;;;;19.25;17.75;;;;;37.07;30.35;101527.09;5079172;27;45327;-62
2022/07/24 07:41:54;;;;;;;;;9.75;7.75;;;;;38.53;27.40;101520.63;5078611;27;45954;-60
2022/07/24 07:44:20;;;;;;;;;20.25;18.25;;;;;39.88;26.99;101518.25;5078551;27;45406;-54
2022/07/24 07:46:45;;;;;;;;;17.75;15.25;;;;;41.01;24.95;101515.34;5078757;28;45718;-62
2022/07/24 07:49:11;;;;;;;;;18.25;17.50;;;;;42.02;23.88;101512.63;5079078;27;45138;-61
2022/07/24 07:51:37;;;;;;;;;19.00;18.75;;;;;42.73;22.49;101515.25;5078663;27;46187;-64
2022/07/24 07:54:02;;;;;;;;;18.60;16.40;;;;;43.67;21.90;101510.75;5078515;27;45414;-57
2022/07/24 07:56:30;;;;;;;;;20.50;18.75;;;;;44.25;21.08;101503.69;5078621;27;45424;-61
2022/07/24 07:58:56;;;;;;;;;15.60;14.40;;;;;44.91;20.10;101512.66;5078708;27;45369;-56
2022/07/24 08:01:21;;;;;;;;;19.50;18.25;;;;;45.54;20.26;101507.78;5078133;27;46235;-59
2022/07/24 08:03:46;;;;;;;;;19.25;15.50;;;;;45.99;19.34;101494.31;5078222;27;45509;-64
2022/07/24 08:06:12;;;;;;;;;19.75;15.00;;;;;46.75;19.62;101503.03;5078566;27;45381;-63
2022/07/24 08:08:38;;;;;;;;;15.75;15.50;;;;;47.29;17.80;101501.09;5078646;27;45198;-56
2022/07/24 08:11:03;;;;;;;;;14.60;14.20;;;;;47.89;17.31;101501.94;5077108;27;46382;-60
2022/07/24 08:13:29;;;;;;;;;18.00;16.00;;;;;48.40;17.16;101490.06;5078069;27;45345;-60
2022/07/24 08:15:54;;;;;;;;;14.00;14.00;;;;;48.95;17.20;101497.81;5078213;27;45308;-61
2022/07/24 08:18:19;;;;;;;;;18.75;18.75;;;;;49.35;15.80;101498.88;5078556;27;45193;-62
2022/07/24 08:20:45;;;;;;;;;16.50;16.50;;;;;49.74;15.65;101492.66;5078162;27;45337;-60
2022/07/24 08:23:10;;;;;;;;;16.75;15.00;;;;;50.16;14.87;101498.47;5077971;27;45331;-61
2022/07/24 08:25:35;;;;;;;;;16.00;15.50;;;;;50.12;17.81;101496.84;5078140;27;45519;-61
2022/07/24 08:28:01;;;;;;;;;17.00;16.00;;;;;50.10;14.92;101485.09;5078145;27;45310;-56
2022/07/24 08:30:26;;;;;;;;;16.50;15.00;;;;;50.45;14.05;101492.88;5077893;27;45839;-55
2022/07/24 08:32:52;;;;;;;;;15.50;14.00;;;;;51.03;14.68;101486.00;5078134;27;45417;-62
2022/07/24 08:35:17;;;;;;;;;19.00;15.00;;;;;50.94;13.97;101496.97;5077636;27;45314;-57
2022/07/24 08:37:43;;;;;;;;;12.25;12.00;;;;;50.96;14.01;101490.91;5077790;27;45336;-62
2022/07/24 08:40:10;;;;;;;;;17.50;15.00;;;;;51.09;15.09;101487.22;5077537;27;46083;-56
2022/07/24 08:42:36;;;;;;;;;16.80;15.60;;;;;51.31;13.50;101490.03;5077646;27;45423;-61
2022/07/24 08:45:03;;;;;;;;;13.00;13.00;;;;;51.80;13.97;101480.53;5077651;27;45229;-59
2022/07/24 08:47:29;;;;;;;;;15.80;14.40;;;;;52.38;12.90;101466.81;5077774;27;45254;-58
2022/07/24 08:49:57;;;;;;;;;16.60;15.00;;;;;52.45;13.49;101474.47;5077431;27;46226;-57
2022/07/24 08:52:23;;;;;;;;;17.00;16.80;;;;;52.93;12.90;101476.50;5077494;27;45400;-63
2022/07/24 08:54:48;;;;;;;;;8.00;8.00;;;;;53.04;12.33;101477.22;5077683;28;45359;-60
2022/07/24 08:57:13;;;;;;;;;12.00;11.00;;;;;53.03;12.29;101467.88;5077918;27;45576;-57
2022/07/24 08:59:39;;;;;;;;;12.50;12.50;;;;;53.09;12.90;101465.38;5077230;27;46220;-56
2022/07/24 09:02:04;;;;;;;;;15.75;13.25;;;;;53.19;13.88;101467.31;5077540;27;45441;-59
2022/07/24 09:04:40;;;;;;;;;13.75;12.25;;;;;53.28;12.88;101455.44;5077606;28;45440;-59
2022/07/24 09:07:10;;;;;;;;;10.20;9.40;;;;;53.33;13.81;101460.66;5077614;27;45328;-63
2022/07/24 09:09:37;;;;;;;;;14.20;11.40;;;;;53.04;11.79;101446.75;5077516;27;45237;-59
2022/07/24 09:12:15;;;;;;;;;13.60;11.80;;;;;53.37;12.79;101446.41;5077183;28;45285;-60
2022/07/24 09:14:43;;;;;;;;;12.80;12.40;;;;;53.51;11.82;101435.63;5077148;27;45415;-56
2022/07/24 09:17:14;;;;;;;;;13.00;11.20;;;;;54.10;12.43;101445.78;5077441;27;45409;-59
2022/07/24 09:19:53;;;;;;;;;13.00;11.60;;;;;53.79;11.04;101436.50;5077268;27;46276;-59
2022/07/24 09:22:32;;;;;;;;;12.60;12.60;;;;;53.66;12.21;101447.66;5076738;27;45211;-63
2022/07/24 09:25:19;;;;;;;;;13.20;11.60;;;;;54.02;11.84;101436.56;5077302;28;45401;-56
2022/07/24 09:27:48;;;;;;;;;9.20;9.20;;;;;54.25;10.57;101429.31;5077397;27;45291;-63
2022/07/24 09:30:34;;;;;;;;;10.20;8.80;;;;;54.17;10.81;101422.91;5076965;28;46395;-63
2022/07/24 09:33:04;;;;;;;;;11.00;10.00;;;;;53.95;10.54;101430.19;5076912;28;45364;-62
2022/07/24 09:35:29;;;;;;;;;10.40;10.40;;;;;54.22;10.02;101433.03;5076874;27;45474;-57
2022/07/24 09:37:56;;;;;;;;;8.50;8.00;;;;;54.42;10.61;101416.00;5077323;27;45318;-57
2022/07/24 09:40:28;;;;;;;;;13.00;9.60;;;;;54.57;12.04;101403.13;5076870;28;45394;-58
2022/07/24 09:43:16;;;;;;;;;10.00;9.00;;;;;54.60;10.08;101416.50;5077117;27;45374;-58
2022/07/24 09:45:55;;;;;;;;;9.80;9.80;;;;;54.81;12.21;101409.59;5076965;27;45433;-60
2022/07/24 09:48:22;;;;;;;;;9.80;8.40;;;;;54.37;9.85;101411.63;5077288;27;45551;-61
2022/07/24 09:50:52;;;;;;;;;10.60;10.60;;;;;53.96;10.73;101406.19;5076944;27;45459;-62
2022/07/24 09:53:19;;;;;;;;;11.60;9.40;;;;;53.55;10.69;101395.78;5076954;27;45403;-57
2022/07/24 09:55:55;;;;;;;;;8.60;8.60;;;;;53.30;10.07;101393.25;5076933;27;45236;-61
2022/07/24 09:58:21;;;;;;;;;7.40;7.40;;;;;53.70;10.68;101393.56;5077039;27;45310;-61
2022/07/24 10:00:47;;;;;;;;;9.25;7.75;;;;;53.49;11.00;101400.34;5076510;28;46428;-58
2022/07/24 10:03:18;;;;;;;;;10.60;9.20;;;;;52.98;9.92;101385.94;5076555;27;45518;-58
2022/07/24 10:05:46;;;;;;;;;7.60;7.00;;;;;53.48;10.32;101385.31;5076909;28;45282;-56
2022/07/24 10:08:13;;;;;;;;;7.00;7.00;;;;;54.03;10.25;101386.16;5076842;27;45538;-58
2022/07/24 10:10:41;;;;;;;;;9.00;9.00;;;;;54.57;10.56;101384.00;5076511;27;45442;-60
2022/07/24 10:13:08;;;;;;;;;11.40;8.60;;;;;54.74;10.02;101378.38;5076633;27;45181;-63
2022/07/24 10:15:40;;;;;;;;;11.80;10.00;;;;;55.00;9.12;101385.22;5076550;27;45423;-58
2022/07/24 10:18:16;;;;;;;;;7.00;7.00;;;;;54.43;10.66;101378.53;5076663;28;45409;-57
2022/07/24 10:20:44;;;;;;;;;8.40;8.00;;;;;54.69;9.58;101381.75;5076304;27;47650;-58
2022/07/24 10:23:21;;;;;;;;;7.40;7.40;;;;;54.16;9.89;101378.59;5076682;27;45431;-59
2022/07/24 10:26:01;;;;;;;;;10.60;7.80;;;;;54.03;9.71;101374.75;5076679;27;45438;-59
2022/07/24 10:28:36;;;;;;;;;6.20;6.20;;;;;53.72;10.49;101376.84;5076742;28;45427;-58
2022/07/24 10:31:05;;;;;;;;;8.80;8.00;;;;;53.73;9.70;101370.72;5076023;27;46111;-60
2022/07/24 10:33:31;;;;;;;;;10.60;10.60;;;;;53.14;11.21;101375.97;5076387;27;46141;-62
2022/07/24 10:36:00;;;;;;;;;12.00;8.40;;;;;52.76;10.74;101379.63;5079745;27;45202;-60
2022/07/24 10:38:36;;;;;;;;;6.40;6.20;;;;;52.24;10.55;101361.91;5080030;27;45316;-56
2022/07/24 10:41:09;;;;;;;;;9.40;8.60;;;;;52.23;9.70;101360.28;5079680;27;45261;-62
2022/07/24 10:43:35;;;;;;;;;8.00;8.00;;;;;52.32;10.01;101349.25;5079528;27;45384;-61
2022/07/24 10:46:00;;;;;;;;;7.25;6.50;;;;;52.11;10.91;101365.22;5079702;27;45470;-55
2022/07/24 10:48:31;;;;;;;;;9.50;6.75;;;;;52.06;10.43;101356.34;5080132;28;45391;-59
2022/07/24 10:50:57;;;;;;;;;7.60;6.80;;;;;51.68;11.32;101364.72;5079439;27;46406;-59
2022/07/24 10:53:25;;;;;;;;;6.50;6.50;;;;;51.34;11.03;101353.94;5079502;27;45502;-56
2022/07/24 10:55:51;;;;;;;;;7.80;7.80;;;;;51.64;10.75;101356.22;5079671;27;45435;-59
2022/07/24 10:58:17;;;;;;;;;8.00;7.00;;;;;51.01;10.59;101352.44;5079727;27;45279;-63
2022/07/24 11:00:50;;;;;;;;;7.00;6.00;;;;;50.15;11.21;101335.56;5079476;27;45471;-58
2022/07/24 11:03:22;;;;;;;;;8.20;8.20;;;;;49.79;11.74;101336.72;5079368;28;45329;-56
2022/07/24 11:06:10;;;;;;;;;9.80;7.60;;;;;48.96;12.53;101327.09;5079556;28;45254;-57
2022/07/24 11:09:01;;;;;;;;;8.80;8.80;;;;;47.97;12.52;101330.78;5079512;27;45389;-59